sensor_id;sensor_type;location;lat;lon;timestamp;temperature;humidity
34646;DHT22;20857;47.808;12.482;2024-02-26T00:02:23;3.50;99.90
34646;DHT22;20857;47.808;12.482;2024-02-26T00:04:50;3.30;99.90
34646;DHT22;20857;47.808;12.482;2024-02-26T00:07:16;3.20;99.90
34646;DHT22;20857;47.808;12.482;2024-02-26T00:09:42;4.20;99.90
34646;DHT22;20857;47.808;12.482;2024-02-26T00:12:07;3.20;99.90
34646;DHT22;20857;47.808;12.482;2024-02-26T00:14:33;3.40;99.90
34646;DHT22;20857;47.808;12.482;2024-02-26T00:16:59;3.50;99.90
34646;DHT22;20857;47.808;12.482;2024-02-26T00:19:25;3.40;99.90
34646;DHT22;20857;47.808;12.482;2024-02-26T00:21:50;3.40;99.90
34646;DHT22;20857;47.808;12.482;2024-02-26T00:24:16;3.60;99.90
34646;DHT22;20857;47.808;12.482;2024-02-26T00:26:41;4.10;99.90
34646;DHT22;20857;47.808;12.482;2024-02-26T00:29:07;4.20;99.90
34646;DHT22;20857;47.808;12.482;2024-02-26T00:31:33;3.80;99.90
34646;DHT22;20857;47.808;12.482;2024-02-26T00:33:58;3.60;99.90
34646;DHT22;20857;47.808;12.482;2024-02-26T00:36:24;3.40;99.90
34646;DHT22;20857;47.808;12.482;2024-02-26T00:38:50;3.50;99.90
34646;DHT22;20857;47.808;12.482;2024-02-26T00:41:19;4.40;99.90
34646;DHT22;20857;47.808;12.482;2024-02-26T00:43:46;3.80;99.90
34646;DHT22;20857;47.808;12.482;2024-02-26T00:46:11;4.60;99.90
34646;DHT22;20857;47.808;12.482;2024-02-26T00:48:37;3.80;99.90
34646;DHT22;20857;47.808;12.482;2024-02-26T00:51:03;3.70;99.90
34646;DHT22;20857;47.808;12.482;2024-02-26T00:53:31;3.60;99.90
34646;DHT22;20857;47.808;12.482;2024-02-26T00:55:57;3.60;99.90
34646;DHT22;20857;47.808;12.482;2024-02-26T00:58:25;4.80;99.90
34646;DHT22;20857;47.808;12.482;2024-02-26T01:00:50;3.50;99.90
34646;DHT22;20857;47.808;12.482;2024-02-26T01:03:17;3.40;99.90
34646;DHT22;20857;47.808;12.482;2024-02-26T01:05:43;3.40;99.90
34646;DHT22;20857;47.808;12.482;2024-02-26T01:08:08;4.30;99.90
34646;DHT22;20857;47.808;12.482;2024-02-26T01:10:34;5.00;99.90
34646;DHT22;20857;47.808;12.482;2024-02-26T01:13:00;3.60;99.90
34646;DHT22;20857;47.808;12.482;2024-02-26T01:15:26;3.70;99.90
34646;DHT22;20857;47.808;12.482;2024-02-26T01:17:52;3.60;99.90
34646;DHT22;20857;47.808;12.482;2024-02-26T01:20:22;3.60;99.90
34646;DHT22;20857;47.808;12.482;2024-02-26T01:22:47;3.50;99.90
34646;DHT22;20857;47.808;12.482;2024-02-26T01:25:13;3.50;99.90
34646;DHT22;20857;47.808;12.482;2024-02-26T01:27:39;3.50;99.90
34646;DHT22;20857;47.808;12.482;2024-02-26T01:30:08;3.30;99.90
34646;DHT22;20857;47.808;12.482;2024-02-26T01:32:33;3.10;99.90
34646;DHT22;20857;47.808;12.482;2024-02-26T01:34:59;3.00;99.90
34646;DHT22;20857;47.808;12.482;2024-02-26T01:37:25;3.10;99.90
34646;DHT22;20857;47.808;12.482;2024-02-26T01:39:51;3.20;99.90
34646;DHT22;20857;47.808;12.482;2024-02-26T01:42:16;4.10;99.90
34646;DHT22;20857;47.808;12.482;2024-02-26T01:44:42;3.30;99.90
34646;DHT22;20857;47.808;12.482;2024-02-26T01:47:11;3.40;99.90
34646;DHT22;20857;47.808;12.482;2024-02-26T01:49:37;3.60;99.90
34646;DHT22;20857;47.808;12.482;2024-02-26T01:52:04;4.90;99.90
34646;DHT22;20857;47.808;12.482;2024-02-26T01:54:31;3.90;99.90
34646;DHT22;20857;47.808;12.482;2024-02-26T01:56:59;3.70;99.90
34646;DHT22;20857;47.808;12.482;2024-02-26T01:59:25;3.60;99.90
34646;DHT22;20857;47.808;12.482;2024-02-26T02:01:55;3.70;99.90
34646;DHT22;20857;47.808;12.482;2024-02-26T02:04:22;3.30;99.90
34646;DHT22;20857;47.808;12.482;2024-02-26T02:06:48;3.20;99.90
34646;DHT22;20857;47.808;12.482;2024-02-26T02:09:15;3.30;99.90
34646;DHT22;20857;47.808;12.482;2024-02-26T02:11:41;3.30;99.90
34646;DHT22;20857;47.808;12.482;2024-02-26T02:14:06;3.20;99.90
34646;DHT22;20857;47.808;12.482;2024-02-26T02:16:32;3.30;99.90
34646;DHT22;20857;47.808;12.482;2024-02-26T02:18:58;3.30;99.90
34646;DHT22;20857;47.808;12.482;2024-02-26T02:21:25;3.50;99.90
34646;DHT22;20857;47.808;12.482;2024-02-26T02:23:50;3.50;99.90
34646;DHT22;20857;47.808;12.482;2024-02-26T02:26:16;3.50;99.90
34646;DHT22;20857;47.808;12.482;2024-02-26T02:28:42;3.50;99.90
34646;DHT22;20857;47.808;12.482;2024-02-26T02:31:08;3.50;99.90
34646;DHT22;20857;47.808;12.482;2024-02-26T02:33:34;3.40;99.90
34646;DHT22;20857;47.808;12.482;2024-02-26T02:36:00;3.60;99.90
34646;DHT22;20857;47.808;12.482;2024-02-26T02:38:26;3.60;99.90
34646;DHT22;20857;47.808;12.482;2024-02-26T02:40:53;3.60;99.90
34646;DHT22;20857;47.808;12.482;2024-02-26T02:43:18;3.50;99.90
34646;DHT22;20857;47.808;12.482;2024-02-26T02:45:44;3.60;99.90
34646;DHT22;20857;47.808;12.482;2024-02-26T02:48:11;3.60;99.90
34646;DHT22;20857;47.808;12.482;2024-02-26T02:50:36;3.60;99.90
34646;DHT22;20857;47.808;12.482;2024-02-26T02:53:02;3.50;99.90
34646;DHT22;20857;47.808;12.482;2024-02-26T02:55:28;3.50;99.90
34646;DHT22;20857;47.808;12.482;2024-02-26T02:57:53;3.30;99.90
34646;DHT22;20857;47.808;12.482;2024-02-26T03:00:19;4.20;99.90
34646;DHT22;20857;47.808;12.482;2024-02-26T03:02:45;2.90;99.90
34646;DHT22;20857;47.808;12.482;2024-02-26T03:05:11;2.70;99.90
34646;DHT22;20857;47.808;12.482;2024-02-26T03:07:37;2.70;99.90
34646;DHT22;20857;47.808;12.482;2024-02-26T03:10:03;2.60;99.90
34646;DHT22;20857;47.808;12.482;2024-02-26T03:12:30;2.50;99.90
34646;DHT22;20857;47.808;12.482;2024-02-26T03:14:55;2.60;99.90
34646;DHT22;20857;47.808;12.482;2024-02-26T03:17:21;2.70;99.90
34646;DHT22;20857;47.808;12.482;2024-02-26T03:19:47;2.70;99.90
34646;DHT22;20857;47.808;12.482;2024-02-26T03:22:13;2.70;99.90
34646;DHT22;20857;47.808;12.482;2024-02-26T03:24:39;2.70;99.90
34646;DHT22;20857;47.808;12.482;2024-02-26T03:27:04;2.50;99.90
34646;DHT22;20857;47.808;12.482;2024-02-26T03:29:35;2.40;99.90
34646;DHT22;20857;47.808;12.482;2024-02-26T03:32:01;2.20;99.90
34646;DHT22;20857;47.808;12.482;2024-02-26T03:34:28;2.10;99.90
34646;DHT22;20857;47.808;12.482;2024-02-26T03:36:54;2.00;99.90
34646;DHT22;20857;47.808;12.482;2024-02-26T03:39:19;2.70;99.90
34646;DHT22;20857;47.808;12.482;2024-02-26T03:41:45;1.90;99.90
34646;DHT22;20857;47.808;12.482;2024-02-26T03:44:10;2.00;99.90
34646;DHT22;20857;47.808;12.482;2024-02-26T03:46:36;2.10;99.90
34646;DHT22;20857;47.808;12.482;2024-02-26T03:49:02;2.10;99.90
34646;DHT22;20857;47.808;12.482;2024-02-26T03:51:27;2.10;99.90
34646;DHT22;20857;47.808;12.482;2024-02-26T03:53:57;2.20;99.90
34646;DHT22;20857;47.808;12.482;2024-02-26T03:56:23;2.30;99.90
34646;DHT22;20857;47.808;12.482;2024-02-26T03:58:49;2.50;99.90
34646;DHT22;20857;47.808;12.482;2024-02-26T04:01:14;2.50;99.90
34646;DHT22;20857;47.808;12.482;2024-02-26T04:03:41;3.90;99.90
34646;DHT22;20857;47.808;12.482;2024-02-26T04:06:09;2.50;99.90
34646;DHT22;20857;47.808;12.482;2024-02-26T04:08:36;2.30;99.90
34646;DHT22;20857;47.808;12.482;2024-02-26T04:11:03;2.40;99.90
34646;DHT22;20857;47.808;12.482;2024-02-26T04:13:36;2.50;99.90
34646;DHT22;20857;47.808;12.482;2024-02-26T04:16:04;3.20;99.90
34646;DHT22;20857;47.808;12.482;2024-02-26T04:18:31;2.70;99.90
34646;DHT22;20857;47.808;12.482;2024-02-26T04:20:57;2.60;99.90
34646;DHT22;20857;47.808;12.482;2024-02-26T04:23:22;2.40;99.90
34646;DHT22;20857;47.808;12.482;2024-02-26T04:25:48;2.30;99.90
34646;DHT22;20857;47.808;12.482;2024-02-26T04:28:14;2.30;99.90
34646;DHT22;20857;47.808;12.482;2024-02-26T04:30:40;2.50;99.90
34646;DHT22;20857;47.808;12.482;2024-02-26T04:33:06;3.20;99.90
34646;DHT22;20857;47.808;12.482;2024-02-26T04:35:32;2.70;99.90
34646;DHT22;20857;47.808;12.482;2024-02-26T04:37:57;2.80;99.90
34646;DHT22;20857;47.808;12.482;2024-02-26T04:40:23;2.80;99.90
34646;DHT22;20857;47.808;12.482;2024-02-26T04:42:49;2.80;99.90
34646;DHT22;20857;47.808;12.482;2024-02-26T04:45:15;2.80;99.90
34646;DHT22;20857;47.808;12.482;2024-02-26T04:47:40;2.80;99.90
34646;DHT22;20857;47.808;12.482;2024-02-26T04:50:06;2.80;99.90
34646;DHT22;20857;47.808;12.482;2024-02-26T04:52:32;2.70;99.90
34646;DHT22;20857;47.808;12.482;2024-02-26T04:54:58;2.70;99.90
34646;DHT22;20857;47.808;12.482;2024-02-26T04:57:25;2.70;99.90
34646;DHT22;20857;47.808;12.482;2024-02-26T04:59:51;2.80;99.90
34646;DHT22;20857;47.808;12.482;2024-02-26T05:02:17;2.80;99.90
34646;DHT22;20857;47.808;12.482;2024-02-26T05:04:42;2.90;99.90
34646;DHT22;20857;47.808;12.482;2024-02-26T05:07:08;3.00;99.90
34646;DHT22;20857;47.808;12.482;2024-02-26T05:09:34;3.00;99.90
34646;DHT22;20857;47.808;12.482;2024-02-26T05:12:00;3.00;99.90
34646;DHT22;20857;47.808;12.482;2024-02-26T05:14:26;3.00;99.90
34646;DHT22;20857;47.808;12.482;2024-02-26T05:16:51;3.00;99.90
34646;DHT22;20857;47.808;12.482;2024-02-26T05:19:17;3.10;99.90
34646;DHT22;20857;47.808;12.482;2024-02-26T05:21:42;3.10;99.90
34646;DHT22;20857;47.808;12.482;2024-02-26T05:24:09;3.10;99.90
34646;DHT22;20857;47.808;12.482;2024-02-26T05:26:35;3.20;99.90
34646;DHT22;20857;47.808;12.482;2024-02-26T05:29:01;3.30;99.90
34646;DHT22;20857;47.808;12.482;2024-02-26T05:31:27;3.00;99.90
34646;DHT22;20857;47.808;12.482;2024-02-26T05:33:54;2.50;99.90
34646;DHT22;20857;47.808;12.482;2024-02-26T05:36:20;3.10;99.90
34646;DHT22;20857;47.808;12.482;2024-02-26T05:38:50;2.10;99.90
34646;DHT22;20857;47.808;12.482;2024-02-26T05:41:16;2.00;99.90
34646;DHT22;20857;47.808;12.482;2024-02-26T05:43:48;2.00;99.90
34646;DHT22;20857;47.808;12.482;2024-02-26T05:46:19;2.00;99.90
34646;DHT22;20857;47.808;12.482;2024-02-26T05:48:47;2.00;99.90
34646;DHT22;20857;47.808;12.482;2024-02-26T05:51:13;1.90;99.90
34646;DHT22;20857;47.808;12.482;2024-02-26T05:53:38;1.80;99.90
34646;DHT22;20857;47.808;12.482;2024-02-26T05:56:05;1.70;99.90
34646;DHT22;20857;47.808;12.482;2024-02-26T05:58:31;1.60;99.90
34646;DHT22;20857;47.808;12.482;2024-02-26T06:00:56;1.60;99.90
34646;DHT22;20857;47.808;12.482;2024-02-26T06:03:22;1.70;99.90
34646;DHT22;20857;47.808;12.482;2024-02-26T06:05:48;2.00;99.90
34646;DHT22;20857;47.808;12.482;2024-02-26T06:08:13;2.30;99.90
34646;DHT22;20857;47.808;12.482;2024-02-26T06:10:39;2.40;99.90
34646;DHT22;20857;47.808;12.482;2024-02-26T06:13:05;2.50;99.90
34646;DHT22;20857;47.808;12.482;2024-02-26T06:15:31;2.50;99.90
34646;DHT22;20857;47.808;12.482;2024-02-26T06:17:57;2.50;99.90
34646;DHT22;20857;47.808;12.482;2024-02-26T06:20:22;2.70;99.90
34646;DHT22;20857;47.808;12.482;2024-02-26T06:22:48;2.80;99.90
34646;DHT22;20857;47.808;12.482;2024-02-26T06:25:14;2.80;99.90
34646;DHT22;20857;47.808;12.482;2024-02-26T06:27:39;3.00;99.90
34646;DHT22;20857;47.808;12.482;2024-02-26T06:30:05;3.20;99.90
34646;DHT22;20857;47.808;12.482;2024-02-26T06:32:31;3.40;99.90
34646;DHT22;20857;47.808;12.482;2024-02-26T06:34:57;3.60;99.90
34646;DHT22;20857;47.808;12.482;2024-02-26T06:37:23;3.80;99.90
34646;DHT22;20857;47.808;12.482;2024-02-26T06:39:48;3.80;99.90
34646;DHT22;20857;47.808;12.482;2024-02-26T06:42:14;3.90;99.90
34646;DHT22;20857;47.808;12.482;2024-02-26T06:44:39;4.00;99.90
34646;DHT22;20857;47.808;12.482;2024-02-26T06:47:05;4.10;99.90
34646;DHT22;20857;47.808;12.482;2024-02-26T06:49:31;4.20;99.90
34646;DHT22;20857;47.808;12.482;2024-02-26T06:51:56;4.20;99.90
34646;DHT22;20857;47.808;12.482;2024-02-26T06:54:23;4.20;99.90
34646;DHT22;20857;47.808;12.482;2024-02-26T06:56:49;4.20;99.90
34646;DHT22;20857;47.808;12.482;2024-02-26T06:59:14;4.20;99.90
34646;DHT22;20857;47.808;12.482;2024-02-26T07:01:41;4.40;99.90
34646;DHT22;20857;47.808;12.482;2024-02-26T07:04:07;4.00;99.90
34646;DHT22;20857;47.808;12.482;2024-02-26T07:06:33;4.30;99.90
34646;DHT22;20857;47.808;12.482;2024-02-26T07:08:58;4.00;99.90
34646;DHT22;20857;47.808;12.482;2024-02-26T07:11:24;4.10;99.90
34646;DHT22;20857;47.808;12.482;2024-02-26T07:13:49;4.20;99.90
34646;DHT22;20857;47.808;12.482;2024-02-26T07:16:15;4.30;99.90
34646;DHT22;20857;47.808;12.482;2024-02-26T07:18:41;4.50;99.90
34646;DHT22;20857;47.808;12.482;2024-02-26T07:21:08;4.60;99.90
34646;DHT22;20857;47.808;12.482;2024-02-26T07:23:34;4.80;99.90
34646;DHT22;20857;47.808;12.482;2024-02-26T07:26:00;4.80;99.90
34646;DHT22;20857;47.808;12.482;2024-02-26T07:28:26;5.00;99.90
34646;DHT22;20857;47.808;12.482;2024-02-26T07:30:51;5.30;99.90
34646;DHT22;20857;47.808;12.482;2024-02-26T07:33:17;5.20;99.90
34646;DHT22;20857;47.808;12.482;2024-02-26T07:35:43;5.30;99.90
34646;DHT22;20857;47.808;12.482;2024-02-26T07:38:08;5.30;99.90
34646;DHT22;20857;47.808;12.482;2024-02-26T07:40:34;5.40;99.90
34646;DHT22;20857;47.808;12.482;2024-02-26T07:42:59;5.40;99.90
34646;DHT22;20857;47.808;12.482;2024-02-26T07:45:25;5.50;99.90
34646;DHT22;20857;47.808;12.482;2024-02-26T07:47:51;5.80;99.90
34646;DHT22;20857;47.808;12.482;2024-02-26T07:50:17;6.00;99.90
34646;DHT22;20857;47.808;12.482;2024-02-26T07:52:43;6.20;99.90
34646;DHT22;20857;47.808;12.482;2024-02-26T07:55:09;6.20;99.90
34646;DHT22;20857;47.808;12.482;2024-02-26T07:57:34;6.30;99.90
34646;DHT22;20857;47.808;12.482;2024-02-26T08:00:03;6.50;99.90
34646;DHT22;20857;47.808;12.482;2024-02-26T08:02:36;6.70;99.90
34646;DHT22;20857;47.808;12.482;2024-02-26T08:05:02;6.80;99.90
34646;DHT22;20857;47.808;12.482;2024-02-26T08:07:28;6.90;99.90
34646;DHT22;20857;47.808;12.482;2024-02-26T08:09:54;7.10;99.90
34646;DHT22;20857;47.808;12.482;2024-02-26T08:12:19;7.20;99.90
34646;DHT22;20857;47.808;12.482;2024-02-26T08:14:45;7.40;99.90
34646;DHT22;20857;47.808;12.482;2024-02-26T08:17:12;7.50;99.90
34646;DHT22;20857;47.808;12.482;2024-02-26T08:19:37;7.50;99.90
34646;DHT22;20857;47.808;12.482;2024-02-26T08:22:03;7.60;99.90
34646;DHT22;20857;47.808;12.482;2024-02-26T08:24:29;7.50;99.90
34646;DHT22;20857;47.808;12.482;2024-02-26T08:26:54;7.50;99.90
34646;DHT22;20857;47.808;12.482;2024-02-26T08:29:20;7.50;99.90
34646;DHT22;20857;47.808;12.482;2024-02-26T08:31:45;7.50;99.90
34646;DHT22;20857;47.808;12.482;2024-02-26T08:34:11;8.10;99.90
34646;DHT22;20857;47.808;12.482;2024-02-26T08:36:37;7.90;99.90
34646;DHT22;20857;47.808;12.482;2024-02-26T08:39:03;8.20;99.90
34646;DHT22;20857;47.808;12.482;2024-02-26T08:41:29;8.50;99.90
34646;DHT22;20857;47.808;12.482;2024-02-26T08:43:54;8.90;99.30
34646;DHT22;20857;47.808;12.482;2024-02-26T08:46:23;9.20;98.60
34646;DHT22;20857;47.808;12.482;2024-02-26T08:48:49;9.40;98.80
34646;DHT22;20857;47.808;12.482;2024-02-26T08:51:14;9.50;98.60
34646;DHT22;20857;47.808;12.482;2024-02-26T08:53:40;10.00;98.50
34646;DHT22;20857;47.808;12.482;2024-02-26T08:56:06;10.10;97.40
34646;DHT22;20857;47.808;12.482;2024-02-26T08:58:31;10.50;97.40
34646;DHT22;20857;47.808;12.482;2024-02-26T09:00:57;11.40;96.70
34646;DHT22;20857;47.808;12.482;2024-02-26T09:03:23;10.70;96.00
34646;DHT22;20857;47.808;12.482;2024-02-26T09:05:49;10.90;96.10
34646;DHT22;20857;47.808;12.482;2024-02-26T09:08:15;10.90;95.70
34646;DHT22;20857;47.808;12.482;2024-02-26T09:10:41;11.00;94.90
34646;DHT22;20857;47.808;12.482;2024-02-26T09:13:07;11.10;95.50
34646;DHT22;20857;47.808;12.482;2024-02-26T09:15:32;11.30;96.20
34646;DHT22;20857;47.808;12.482;2024-02-26T09:17:58;11.20;95.70
34646;DHT22;20857;47.808;12.482;2024-02-26T09:20:23;11.20;96.00
34646;DHT22;20857;47.808;12.482;2024-02-26T09:22:50;11.10;95.60
34646;DHT22;20857;47.808;12.482;2024-02-26T09:25:16;11.30;95.40
34646;DHT22;20857;47.808;12.482;2024-02-26T09:27:42;11.30;95.30
34646;DHT22;20857;47.808;12.482;2024-02-26T09:30:12;11.40;94.50
34646;DHT22;20857;47.808;12.482;2024-02-26T09:32:38;11.40;95.60
34646;DHT22;20857;47.808;12.482;2024-02-26T09:35:05;11.40;95.70
34646;DHT22;20857;47.808;12.482;2024-02-26T09:37:31;11.60;95.40
34646;DHT22;20857;47.808;12.482;2024-02-26T09:39:56;11.80;94.90
34646;DHT22;20857;47.808;12.482;2024-02-26T09:42:25;11.90;94.50
34646;DHT22;20857;47.808;12.482;2024-02-26T09:44:54;11.90;94.90
34646;DHT22;20857;47.808;12.482;2024-02-26T09:47:23;12.00;95.10
34646;DHT22;20857;47.808;12.482;2024-02-26T09:49:53;12.00;94.90
34646;DHT22;20857;47.808;12.482;2024-02-26T09:52:20;12.00;94.80
34646;DHT22;20857;47.808;12.482;2024-02-26T09:54:49;12.10;94.10
34646;DHT22;20857;47.808;12.482;2024-02-26T09:57:16;12.20;94.10
34646;DHT22;20857;47.808;12.482;2024-02-26T09:59:43;12.10;93.40
34646;DHT22;20857;47.808;12.482;2024-02-26T10:02:13;12.20;93.10
34646;DHT22;20857;47.808;12.482;2024-02-26T10:04:42;12.10;93.50
34646;DHT22;20857;47.808;12.482;2024-02-26T10:07:12;12.30;93.50
34646;DHT22;20857;47.808;12.482;2024-02-26T10:09:39;12.30;93.10
34646;DHT22;20857;47.808;12.482;2024-02-26T10:12:05;12.30;93.00
34646;DHT22;20857;47.808;12.482;2024-02-26T10:14:32;12.30;93.10
34646;DHT22;20857;47.808;12.482;2024-02-26T10:16:58;12.40;93.10
34646;DHT22;20857;47.808;12.482;2024-02-26T10:19:27;12.20;93.10
34646;DHT22;20857;47.808;12.482;2024-02-26T10:21:57;12.30;93.40
34646;DHT22;20857;47.808;12.482;2024-02-26T10:24:27;12.30;93.20
34646;DHT22;20857;47.808;12.482;2024-02-26T10:26:54;12.40;92.70
34646;DHT22;20857;47.808;12.482;2024-02-26T10:29:21;12.30;92.50
34646;DHT22;20857;47.808;12.482;2024-02-26T10:31:47;12.20;93.50
34646;DHT22;20857;47.808;12.482;2024-02-26T10:34:14;12.40;94.20
34646;DHT22;20857;47.808;12.482;2024-02-26T10:36:40;12.60;93.20
34646;DHT22;20857;47.808;12.482;2024-02-26T10:39:06;12.50;94.20
34646;DHT22;20857;47.808;12.482;2024-02-26T10:41:35;12.60;93.90
34646;DHT22;20857;47.808;12.482;2024-02-26T10:44:01;12.60;92.60
34646;DHT22;20857;47.808;12.482;2024-02-26T10:46:27;12.60;93.20
34646;DHT22;20857;47.808;12.482;2024-02-26T10:48:53;12.50;93.50
34646;DHT22;20857;47.808;12.482;2024-02-26T10:51:29;12.60;93.70
34646;DHT22;20857;47.808;12.482;2024-02-26T10:53:57;12.90;93.10
34646;DHT22;20857;47.808;12.482;2024-02-26T10:56:28;12.90;93.40
34646;DHT22;20857;47.808;12.482;2024-02-26T10:58:58;13.00;93.60
34646;DHT22;20857;47.808;12.482;2024-02-26T11:01:27;13.20;92.70
34646;DHT22;20857;47.808;12.482;2024-02-26T11:03:58;13.30;92.60
34646;DHT22;20857;47.808;12.482;2024-02-26T11:06:26;13.50;92.70
34646;DHT22;20857;47.808;12.482;2024-02-26T11:08:52;13.50;92.30
34646;DHT22;20857;47.808;12.482;2024-02-26T11:11:20;13.60;92.20
34646;DHT22;20857;47.808;12.482;2024-02-26T11:13:47;13.60;92.80
34646;DHT22;20857;47.808;12.482;2024-02-26T11:16:21;13.60;92.40
34646;DHT22;20857;47.808;12.482;2024-02-26T11:18:48;13.60;92.40
34646;DHT22;20857;47.808;12.482;2024-02-26T11:21:17;13.70;92.50
34646;DHT22;20857;47.808;12.482;2024-02-26T11:23:53;13.50;92.30
34646;DHT22;20857;47.808;12.482;2024-02-26T11:26:20;13.70;92.70
34646;DHT22;20857;47.808;12.482;2024-02-26T11:28:48;14.00;93.40
34646;DHT22;20857;47.808;12.482;2024-02-26T11:31:14;14.40;93.10
34646;DHT22;20857;47.808;12.482;2024-02-26T11:33:40;15.00;92.20
34646;DHT22;20857;47.808;12.482;2024-02-26T11:36:10;15.10;92.10
34646;DHT22;20857;47.808;12.482;2024-02-26T11:38:37;15.00;89.90
34646;DHT22;20857;47.808;12.482;2024-02-26T11:41:04;15.00;91.30
34646;DHT22;20857;47.808;12.482;2024-02-26T11:43:58;15.00;90.80
34646;DHT22;20857;47.808;12.482;2024-02-26T11:46:26;14.90;91.20
34646;DHT22;20857;47.808;12.482;2024-02-26T11:48:55;15.00;91.30
34646;DHT22;20857;47.808;12.482;2024-02-26T11:51:28;14.90;91.50
34646;DHT22;20857;47.808;12.482;2024-02-26T11:53:57;15.00;91.40
34646;DHT22;20857;47.808;12.482;2024-02-26T11:56:24;15.00;91.90
34646;DHT22;20857;47.808;12.482;2024-02-26T11:59:09;15.20;90.70
34646;DHT22;20857;47.808;12.482;2024-02-26T12:04:24;15.00;90.90
34646;DHT22;20857;47.808;12.482;2024-02-26T12:07:02;14.60;91.50
34646;DHT22;20857;47.808;12.482;2024-02-26T12:09:39;14.70;91.20
34646;DHT22;20857;47.808;12.482;2024-02-26T12:12:07;14.40;90.90
34646;DHT22;20857;47.808;12.482;2024-02-26T12:14:56;14.20;91.10
34646;DHT22;20857;47.808;12.482;2024-02-26T12:17:24;13.90;91.60
34646;DHT22;20857;47.808;12.482;2024-02-26T12:19:51;13.90;92.60
34646;DHT22;20857;47.808;12.482;2024-02-26T12:22:19;14.10;93.00
34646;DHT22;20857;47.808;12.482;2024-02-26T12:24:45;14.30;92.30
34646;DHT22;20857;47.808;12.482;2024-02-26T12:27:11;14.70;91.90
34646;DHT22;20857;47.808;12.482;2024-02-26T12:29:37;14.60;92.00
34646;DHT22;20857;47.808;12.482;2024-02-26T12:32:04;14.60;92.10
34646;DHT22;20857;47.808;12.482;2024-02-26T12:34:31;14.60;92.10
34646;DHT22;20857;47.808;12.482;2024-02-26T12:36:57;14.60;92.30
34646;DHT22;20857;47.808;12.482;2024-02-26T12:39:23;14.60;90.70
34646;DHT22;20857;47.808;12.482;2024-02-26T12:41:48;14.40;91.00
34646;DHT22;20857;47.808;12.482;2024-02-26T12:44:17;14.20;90.80
34646;DHT22;20857;47.808;12.482;2024-02-26T12:46:43;14.00;90.80
34646;DHT22;20857;47.808;12.482;2024-02-26T12:49:08;14.00;90.20
34646;DHT22;20857;47.808;12.482;2024-02-26T12:51:40;14.00;90.80
34646;DHT22;20857;47.808;12.482;2024-02-26T12:54:07;13.90;91.00
34646;DHT22;20857;47.808;12.482;2024-02-26T12:56:34;13.80;92.40
34646;DHT22;20857;47.808;12.482;2024-02-26T12:59:00;13.80;91.40
34646;DHT22;20857;47.808;12.482;2024-02-26T13:01:27;13.80;91.10
34646;DHT22;20857;47.808;12.482;2024-02-26T13:03:53;13.90;91.60
34646;DHT22;20857;47.808;12.482;2024-02-26T13:06:19;14.00;92.00
34646;DHT22;20857;47.808;12.482;2024-02-26T13:08:47;14.10;90.90
34646;DHT22;20857;47.808;12.482;2024-02-26T13:11:13;14.10;90.70
34646;DHT22;20857;47.808;12.482;2024-02-26T13:13:39;14.40;89.10
34646;DHT22;20857;47.808;12.482;2024-02-26T13:16:07;14.50;90.60
34646;DHT22;20857;47.808;12.482;2024-02-26T13:18:34;14.70;89.10
34646;DHT22;20857;47.808;12.482;2024-02-26T13:21:26;14.80;90.40
34646;DHT22;20857;47.808;12.482;2024-02-26T13:23:53;14.60;86.60
34646;DHT22;20857;47.808;12.482;2024-02-26T13:26:22;14.30;85.60
34646;DHT22;20857;47.808;12.482;2024-02-26T13:29:01;14.00;88.90
34646;DHT22;20857;47.808;12.482;2024-02-26T13:31:28;13.80;90.60
34646;DHT22;20857;47.808;12.482;2024-02-26T13:33:54;13.80;91.80
34646;DHT22;20857;47.808;12.482;2024-02-26T13:36:22;13.60;91.90
34646;DHT22;20857;47.808;12.482;2024-02-26T13:38:55;13.50;90.40
34646;DHT22;20857;47.808;12.482;2024-02-26T13:41:21;13.40;92.40
34646;DHT22;20857;47.808;12.482;2024-02-26T13:43:47;13.40;91.40
34646;DHT22;20857;47.808;12.482;2024-02-26T13:46:14;13.30;91.70
34646;DHT22;20857;47.808;12.482;2024-02-26T13:48:41;13.40;91.30
34646;DHT22;20857;47.808;12.482;2024-02-26T13:51:07;13.50;91.70
34646;DHT22;20857;47.808;12.482;2024-02-26T13:53:32;13.60;91.00
34646;DHT22;20857;47.808;12.482;2024-02-26T13:55:58;13.80;92.60
34646;DHT22;20857;47.808;12.482;2024-02-26T13:58:27;13.90;91.80
34646;DHT22;20857;47.808;12.482;2024-02-26T14:00:55;13.90;91.40
34646;DHT22;20857;47.808;12.482;2024-02-26T14:03:21;14.00;91.70
34646;DHT22;20857;47.808;12.482;2024-02-26T14:05:47;14.20;92.20
34646;DHT22;20857;47.808;12.482;2024-02-26T14:08:12;14.30;91.40
34646;DHT22;20857;47.808;12.482;2024-02-26T14:10:38;14.30;90.00
34646;DHT22;20857;47.808;12.482;2024-02-26T14:13:04;14.40;91.70
34646;DHT22;20857;47.808;12.482;2024-02-26T14:15:30;14.30;90.80
34646;DHT22;20857;47.808;12.482;2024-02-26T14:17:56;14.10;91.40
34646;DHT22;20857;47.808;12.482;2024-02-26T14:20:22;14.00;92.00
34646;DHT22;20857;47.808;12.482;2024-02-26T14:22:51;13.90;91.60
34646;DHT22;20857;47.808;12.482;2024-02-26T14:25:21;13.90;92.50
34646;DHT22;20857;47.808;12.482;2024-02-26T14:27:47;13.90;92.20
34646;DHT22;20857;47.808;12.482;2024-02-26T14:30:13;13.90;92.40
34646;DHT22;20857;47.808;12.482;2024-02-26T14:32:39;13.80;93.80
34646;DHT22;20857;47.808;12.482;2024-02-26T14:35:09;13.60;92.90
34646;DHT22;20857;47.808;12.482;2024-02-26T14:37:35;13.50;93.40
34646;DHT22;20857;47.808;12.482;2024-02-26T14:40:01;13.40;94.30
34646;DHT22;20857;47.808;12.482;2024-02-26T14:42:30;13.30;94.70
34646;DHT22;20857;47.808;12.482;2024-02-26T14:44:56;13.20;95.30
34646;DHT22;20857;47.808;12.482;2024-02-26T14:47:22;13.20;94.80
34646;DHT22;20857;47.808;12.482;2024-02-26T14:49:47;13.10;94.20
34646;DHT22;20857;47.808;12.482;2024-02-26T14:52:14;12.90;95.00
34646;DHT22;20857;47.808;12.482;2024-02-26T14:54:40;12.80;94.30
34646;DHT22;20857;47.808;12.482;2024-02-26T14:57:06;12.70;93.70
34646;DHT22;20857;47.808;12.482;2024-02-26T14:59:32;12.70;94.50
34646;DHT22;20857;47.808;12.482;2024-02-26T15:01:59;12.70;94.40
34646;DHT22;20857;47.808;12.482;2024-02-26T15:04:27;12.70;94.40
34646;DHT22;20857;47.808;12.482;2024-02-26T15:06:53;12.80;94.60
34646;DHT22;20857;47.808;12.482;2024-02-26T15:09:19;12.70;94.40
34646;DHT22;20857;47.808;12.482;2024-02-26T15:11:44;12.70;95.60
34646;DHT22;20857;47.808;12.482;2024-02-26T15:14:10;12.80;96.90
34646;DHT22;20857;47.808;12.482;2024-02-26T15:16:36;12.70;96.60
34646;DHT22;20857;47.808;12.482;2024-02-26T15:19:02;12.50;97.20
34646;DHT22;20857;47.808;12.482;2024-02-26T15:21:29;12.30;97.80
34646;DHT22;20857;47.808;12.482;2024-02-26T15:23:54;12.30;98.30
34646;DHT22;20857;47.808;12.482;2024-02-26T15:26:20;12.20;98.60